createdAt,value
2018-10-05T00:04:12.410Z,23.53
2018-10-05T00:09:11.344Z,23.20
2018-10-05T00:14:09.165Z,20.67
2018-10-05T00:19:06.755Z,22.73
2018-10-05T00:29:18.955Z,25.60
2018-10-05T00:34:16.425Z,26.50
2018-10-05T00:39:13.981Z,20.17
2018-10-05T00:44:11.447Z,24.10
2018-10-05T00:49:08.913Z,23.53
2018-10-05T00:54:12.827Z,19.90
2018-10-05T00:59:10.453Z,19.97
2018-10-05T01:04:07.911Z,22.30
2018-10-05T01:09:06.371Z,22.50
2018-10-05T01:14:04.017Z,17.70
2018-10-05T01:19:01.556Z,22.60
2018-10-05T01:24:07.624Z,17.23
2018-10-05T01:29:05.639Z,19.60
2018-10-05T01:34:03.117Z,14.70
2018-10-05T01:39:00.596Z,22.43
2018-10-05T01:43:58.067Z,13.10
2018-10-05T01:48:55.554Z,15.17
2018-10-05T01:54:00.457Z,23.67
2018-10-05T01:58:58.058Z,20.13
2018-10-05T02:03:55.546Z,22.90
2018-10-05T02:08:53.016Z,12.00
2018-10-05T02:13:50.519Z,19.23
2018-10-05T02:18:47.983Z,17.47
2018-10-05T02:23:48.062Z,13.10
2018-10-05T02:28:48.091Z,15.33
2018-10-05T02:33:47.571Z,16.07
2018-10-05T02:38:46.700Z,14.50
2018-10-05T02:43:44.180Z,15.57
2018-10-05T02:48:41.670Z,14.30
2018-10-05T02:53:39.161Z,14.47
2018-10-05T02:58:36.617Z,14.67
2018-10-05T03:03:34.273Z,13.00
2018-10-05T03:08:31.762Z,18.43
2018-10-05T03:13:29.235Z,14.80
2018-10-05T03:18:26.729Z,12.90
2018-10-05T03:23:24.207Z,14.33
2018-10-05T03:28:21.719Z,12.63
2018-10-05T03:33:19.195Z,12.20
2018-10-05T03:38:16.757Z,11.37
2018-10-05T03:43:14.252Z,10.50
2018-10-05T03:48:11.814Z,19.80
2018-10-05T03:53:09.313Z,14.07
2018-10-05T03:58:06.800Z,12.57
2018-10-05T04:03:04.299Z,11.27
2018-10-05T04:08:01.786Z,14.43
2018-10-05T04:12:59.244Z,11.60
2018-10-05T04:17:56.753Z,18.73
2018-10-05T04:22:54.261Z,16.67
2018-10-05T04:27:51.774Z,10.87
2018-10-05T04:32:49.288Z,15.20
2018-10-05T04:37:46.787Z,13.37
2018-10-05T04:42:44.336Z,10.80
2018-10-05T04:47:41.807Z,10.97
2018-10-05T04:52:39.274Z,14.30
2018-10-05T04:57:36.785Z,11.13
2018-10-05T05:02:34.328Z,17.17
2018-10-05T05:07:31.941Z,12.30
2018-10-05T05:12:29.477Z,19.03
2018-10-05T05:17:26.997Z,13.90
2018-10-05T05:22:24.509Z,14.93
2018-10-05T05:27:22.036Z,9.37
2018-10-05T05:32:19.533Z,12.00
2018-10-05T05:37:17.081Z,14.90
2018-10-05T05:42:14.703Z,10.07
2018-10-05T05:47:15.073Z,11.33
2018-10-05T05:52:12.605Z,13.97
2018-10-05T05:57:10.142Z,12.40
2018-10-05T06:02:07.724Z,13.07
2018-10-05T06:07:05.262Z,10.70
2018-10-05T06:12:02.814Z,8.33
2018-10-05T06:17:00.314Z,8.33
2018-10-05T06:21:57.924Z,8.63
2018-10-05T06:26:55.369Z,9.80
2018-10-05T06:31:52.885Z,7.07
2018-10-05T06:36:50.428Z,13.07
2018-10-05T06:41:47.952Z,9.03
2018-10-05T06:46:45.511Z,5.47
2018-10-05T06:51:43.096Z,7.10
2018-10-05T06:56:40.681Z,5.70
2018-10-05T07:01:38.447Z,10.07
2018-10-05T07:06:35.915Z,5.60
2018-10-05T07:11:33.500Z,10.07
2018-10-05T07:16:31.090Z,7.10
2018-10-05T07:21:28.650Z,15.07
2018-10-05T07:26:26.152Z,11.60
2018-10-05T07:31:23.654Z,7.03
2018-10-05T07:36:21.158Z,15.53
2018-10-05T07:41:18.719Z,7.20
2018-10-05T07:46:16.226Z,8.20
2018-10-05T07:51:13.739Z,16.03
2018-10-05T07:56:11.311Z,12.13
2018-10-05T08:01:08.831Z,8.40
2018-10-05T08:06:06.384Z,11.40
2018-10-05T08:11:03.899Z,8.03
2018-10-05T08:16:01.384Z,14.07
2018-10-05T08:20:58.951Z,10.60
2018-10-05T08:25:56.442Z,7.33
2018-10-05T08:30:53.949Z,7.17
2018-10-05T08:35:51.464Z,6.83
2018-10-05T08:40:49.027Z,9.97
2018-10-05T08:45:46.589Z,3.87
2018-10-05T08:50:44.075Z,10.73
2018-10-05T08:55:41.636Z,11.10
2018-10-05T09:00:39.163Z,14.10
2018-10-05T09:05:36.738Z,9.03
2018-10-05T09:10:34.263Z,8.20
2018-10-05T09:15:31.773Z,9.13
2018-10-05T09:20:29.284Z,9.20
2018-10-05T09:25:26.825Z,7.67
2018-10-05T09:30:24.322Z,6.77
2018-10-05T09:35:21.832Z,3.13
2018-10-05T09:40:19.359Z,8.03
2018-10-05T09:45:17.005Z,6.13
2018-10-05T09:50:14.454Z,8.53
2018-10-05T09:55:11.996Z,6.53
2018-10-05T10:00:14.056Z,5.30
2018-10-05T10:05:11.564Z,9.90
2018-10-05T10:10:09.070Z,6.67
2018-10-05T10:15:06.615Z,5.00
2018-10-05T10:20:04.192Z,6.60
2018-10-05T10:25:01.793Z,7.87
2018-10-05T10:29:59.298Z,11.43
2018-10-05T10:34:56.804Z,7.33
2018-10-05T10:39:54.365Z,8.13
2018-10-05T10:44:51.886Z,7.97
2018-10-05T10:49:49.361Z,10.37
2018-10-05T10:54:47.997Z,6.77
2018-10-05T10:59:45.499Z,7.43
2018-10-05T11:04:44.286Z,4.10
2018-10-05T11:09:41.827Z,5.00
2018-10-05T11:14:39.387Z,4.27
2018-10-05T11:19:36.964Z,3.73
2018-10-05T11:24:35.651Z,3.67
2018-10-05T11:29:33.149Z,4.83
2018-10-05T11:34:30.703Z,8.93
2018-10-05T11:39:28.237Z,6.10
2018-10-05T11:44:25.826Z,11.43
2018-10-05T11:49:23.319Z,4.60
2018-10-05T11:54:29.289Z,6.07
2018-10-05T11:59:30.642Z,7.80
2018-10-05T12:04:28.463Z,11.43
2018-10-05T12:09:25.982Z,4.30
2018-10-05T12:14:23.668Z,7.20
2018-10-05T12:19:23.415Z,8.73
2018-10-05T12:24:25.077Z,6.17
2018-10-05T12:29:35.407Z,6.00
2018-10-05T12:34:37.422Z,8.27
2018-10-05T12:39:39.423Z,3.43
2018-10-05T12:44:40.253Z,6.40
2018-10-05T12:49:46.991Z,6.60
2018-10-05T12:54:47.712Z,5.93
2018-10-05T12:59:49.351Z,7.60
2018-10-05T13:04:49.195Z,6.63
2018-10-05T13:09:58.391Z,14.70
2018-10-05T13:14:56.037Z,7.03
2018-10-05T13:19:53.543Z,7.93
2018-10-05T13:24:52.798Z,6.50
2018-10-05T13:29:50.317Z,5.60
2018-10-05T13:34:47.865Z,6.07
2018-10-05T13:39:45.427Z,4.37
2018-10-05T13:44:42.897Z,8.30
2018-10-05T13:49:40.416Z,6.73
2018-10-05T13:54:39.091Z,6.90
2018-10-05T13:59:36.651Z,6.53
2018-10-05T14:04:34.142Z,2.70
2018-10-05T14:09:31.610Z,7.37
2018-10-05T14:14:29.120Z,4.70
2018-10-05T14:19:26.639Z,7.27
2018-10-05T14:24:25.337Z,17.30
2018-10-05T14:29:22.841Z,5.67
2018-10-05T14:34:20.323Z,6.10
2018-10-05T14:39:17.841Z,5.27
2018-10-05T14:44:15.664Z,9.40
2018-10-05T14:49:13.170Z,4.90
2018-10-05T14:54:23.133Z,7.03
2018-10-05T14:59:20.713Z,11.20
2018-10-05T15:04:18.240Z,7.70
2018-10-05T15:09:15.725Z,14.83
2018-10-05T15:14:13.230Z,6.97
2018-10-05T15:19:10.731Z,13.50
2018-10-05T15:24:12.984Z,6.07
2018-10-05T15:29:10.668Z,11.53
2018-10-05T15:34:08.168Z,4.77
2018-10-05T15:39:06.944Z,5.53
2018-10-05T15:44:04.721Z,4.23
2018-10-05T15:49:02.263Z,5.40
2018-10-05T15:54:05.150Z,5.57
2018-10-05T15:59:02.729Z,5.03
2018-10-05T16:04:00.209Z,10.33
2018-10-05T16:08:58.079Z,4.33
2018-10-05T16:13:55.633Z,6.93
2018-10-05T16:18:53.121Z,9.77
2018-10-05T16:23:56.590Z,5.63
2018-10-05T16:28:54.222Z,5.20
2018-10-05T16:33:51.717Z,9.00
2018-10-05T16:38:49.205Z,8.33
2018-10-05T16:43:46.750Z,2.93
2018-10-05T16:48:44.352Z,16.13
2018-10-05T16:53:43.339Z,18.90
2018-10-05T16:58:41.040Z,5.93
2018-10-05T17:03:38.533Z,4.63
2018-10-05T17:08:39.744Z,5.63
2018-10-05T17:13:37.361Z,6.77
2018-10-05T17:18:34.913Z,4.10
2018-10-05T17:23:32.472Z,2.27
2018-10-05T17:28:29.980Z,3.27
2018-10-05T17:33:27.510Z,4.63
2018-10-05T17:38:25.038Z,2.60
2018-10-05T17:43:22.560Z,2.60
2018-10-05T17:48:23.328Z,18.47
2018-10-05T17:53:22.037Z,2.63
2018-10-05T17:58:19.606Z,8.20
2018-10-05T18:03:17.095Z,3.93
2018-10-05T18:08:21.936Z,5.13
2018-10-05T18:13:24.276Z,4.07
2018-10-05T18:18:22.979Z,4.03
2018-10-05T18:23:20.541Z,3.17
2018-10-05T18:28:20.374Z,5.23
2018-10-05T18:33:19.666Z,12.43
2018-10-05T18:38:17.969Z,5.63
2018-10-05T18:43:15.433Z,7.23
2018-10-05T18:48:13.629Z,4.43
2018-10-05T18:53:11.250Z,3.47
2018-10-05T18:58:08.740Z,3.90
2018-10-05T19:03:06.258Z,3.40
2018-10-05T19:08:03.773Z,3.67
2018-10-05T19:13:06.444Z,6.27
2018-10-05T19:18:03.954Z,8.20
2018-10-05T19:23:01.409Z,5.57
2018-10-05T19:27:58.938Z,5.90
2018-10-05T19:32:56.399Z,6.87
2018-10-05T19:37:53.922Z,6.03
2018-10-05T19:42:52.721Z,8.80
2018-10-05T19:47:50.303Z,7.70
2018-10-05T19:52:47.963Z,5.33
2018-10-05T19:57:45.460Z,7.27
2018-10-05T20:02:43.043Z,5.87
2018-10-05T20:07:40.530Z,8.23
2018-10-05T20:12:38.080Z,8.83
2018-10-05T20:17:35.607Z,6.87
2018-10-05T20:22:33.245Z,6.67
2018-10-05T20:27:30.800Z,7.40
2018-10-05T20:32:28.302Z,4.83
2018-10-05T20:37:26.051Z,7.10
2018-10-05T20:42:23.443Z,9.73
2018-10-05T20:47:20.933Z,4.50
2018-10-05T20:52:18.442Z,7.70
2018-10-05T20:57:15.929Z,6.87
2018-10-05T21:02:13.418Z,6.27
2018-10-05T21:07:10.990Z,8.93
2018-10-05T21:12:08.445Z,6.00
2018-10-05T21:17:06.174Z,13.63
2018-10-05T21:22:03.652Z,7.87
2018-10-05T21:27:01.193Z,10.37
2018-10-05T21:31:59.115Z,10.30
2018-10-05T21:36:56.590Z,10.43
2018-10-05T21:41:54.063Z,20.20
2018-10-05T21:46:51.532Z,13.30
2018-10-05T21:51:49.114Z,11.70
2018-10-05T21:56:46.587Z,16.27
2018-10-05T22:01:44.052Z,12.20
2018-10-05T22:06:41.540Z,14.27
2018-10-05T22:11:39.335Z,11.77
2018-10-05T22:16:36.830Z,12.50
2018-10-05T22:21:34.358Z,12.77
2018-10-05T22:26:31.843Z,14.77
2018-10-05T22:31:29.418Z,15.47
2018-10-05T22:36:26.907Z,8.63
2018-10-05T22:41:24.408Z,9.90
2018-10-05T22:46:21.873Z,9.33
2018-10-05T22:51:19.389Z,7.83
2018-10-05T22:56:16.972Z,13.73
2018-10-05T23:01:14.453Z,7.43
2018-10-05T23:06:11.905Z,17.43
2018-10-05T23:11:09.369Z,10.00
2018-10-05T23:16:07.130Z,12.70
2018-10-05T23:21:04.687Z,8.33
2018-10-05T23:26:02.155Z,8.13
2018-10-05T23:30:59.609Z,7.33
2018-10-05T23:35:57.138Z,7.23
2018-10-05T23:40:55.662Z,5.60
2018-10-05T23:45:53.316Z,9.00
2018-10-05T23:50:50.804Z,8.90
2018-10-05T23:55:48.430Z,7.70
